Detall de PIREP

Printer-friendly versionPDF version

[2013/06/06 08:12:00]
Flight IATA:CT0001
Pilot Number:042
Company ICAO:CAT
Aircraft Type:F100/F
PAX:12
Aircraft Registration:DA
Departing Airport: LEGE
Destination Airport: LEAL
Alternate Airport:LEPA
Online: VATSIM
Route:BEXUR UN855 POS UL129 LULAK UM603 GERVU
Flight Level:F290
No Slew and time accel
No pause
Crash detect
Detect pilot in Cockpit between each 30 and 45 minutes
08:12 Zero fuel Weight: 80839 Lbs, Fuel Weight: 23637 Lbs
08:12 VATSIM:LEGE 060800Z 17001KT 9999 SCT018 19/15 Q1017
08:12 VATSIM:LEAL 060800Z VRB01KT CAVOK 23/12 Q1016 NOSIG
08:13 VOICE CATALONIAN
08:25 Parking Brakes off
08:34 Take-off
08:34 Take off Weight: 103897 Lbs
08:34 Wind: 169º @ 001 Knots Heading: 195º
08:34 POS N41º 54´ 00´´ E002º 45´ 36´´
08:34 Gear Up: 159 Knots
08:34 Flaps:2 at 159 Knots
08:34 Flaps:1 at 163 Knots
08:36 Flaps:0 at 158 Knots
08:49 Wind:093º@018 Knots Heading: 179º Ground Speed: 397 Knots Altitude 20711 ft
09:01 TOC
09:01 Fuel Weight: 19680 Lb
09:04 Wind:085º@020 Knots Heading: 247º Ground Speed: 464 Knots Altitude 29107 ft
09:14 TOD
09:14 Fuel Weight: 18616 Lb
09:19 Wind:098º@019 Knots Heading: 253º Ground Speed: 370 Knots Altitude 17395 ft
09:23 Flaps:1 at 180 Knots
09:26 Flaps:2 at 190 Knots
09:27 Gear Down: 179 Knots
09:28 Gear Up: 168 Knots
09:33 Gear Down: 180 Knots
09:34 Wind:099º@011 Knots Heading: 131º Ground Speed: 180 Knots Altitude 2946 ft
09:34 Flaps:3 at 172 Knots
09:35 Flaps:4 at 160 Knots
09:37 TouchDown:Rate -269 ft/min Speed: 155 Knots
09:37 VATSIM:LEAL 060930Z 09010KT 060V140 CAVOK 23/13 Q1017 NOSIG
09:38 Land
09:38 Wind:083º@007 Knots
09:38 Heading: 098º
09:38 Flight Duration: 01:04
09:38 Landing Weight: 98162 Lbs
09:38 POS N38º 16´ 55´´ W000º 33´ 25´´
09:43 Parking brakes on
09:43 Block to Block Duration: 01:18
09:43 Final Fuel: 17028 Lbls
09:43 Spent Fuel: 6609 Lbls
09:43 Flight Length: 366 NM
09:43 TOD Land Length: 98 NM

Exportar CSV

Powered by Drupal - Modified by Danger4k